sensor_id;sensor_type;location;lat;lon;timestamp;P1;durP1;ratioP1;P2;durP2;ratioP2
72639;SDS011;60683;51.730;8.762;2023-07-08T00:01:27;4.90;;;2.20;;
72639;SDS011;60683;51.730;8.762;2023-07-08T00:03:54;4.78;;;2.75;;
72639;SDS011;60683;51.730;8.762;2023-07-08T00:06:22;5.13;;;2.60;;
72639;SDS011;60683;51.730;8.762;2023-07-08T00:08:51;5.47;;;2.65;;
72639;SDS011;60683;51.730;8.762;2023-07-08T00:11:19;4.35;;;2.30;;
72639;SDS011;60683;51.730;8.762;2023-07-08T00:13:46;4.57;;;2.63;;
72639;SDS011;60683;51.730;8.762;2023-07-08T00:16:15;4.38;;;2.50;;
72639;SDS011;60683;51.730;8.762;2023-07-08T00:18:44;4.75;;;1.98;;
72639;SDS011;60683;51.730;8.762;2023-07-08T00:21:11;3.88;;;2.20;;
72639;SDS011;60683;51.730;8.762;2023-07-08T00:23:44;4.30;;;1.85;;
72639;SDS011;60683;51.730;8.762;2023-07-08T00:26:13;4.60;;;2.30;;
72639;SDS011;60683;51.730;8.762;2023-07-08T00:28:45;4.18;;;2.20;;
72639;SDS011;60683;51.730;8.762;2023-07-08T00:31:12;4.47;;;2.25;;
72639;SDS011;60683;51.730;8.762;2023-07-08T00:33:40;5.10;;;2.30;;
72639;SDS011;60683;51.730;8.762;2023-07-08T00:36:11;5.82;;;2.20;;
72639;SDS011;60683;51.730;8.762;2023-07-08T00:38:38;4.10;;;2.22;;
72639;SDS011;60683;51.730;8.762;2023-07-08T00:41:11;4.88;;;2.30;;
72639;SDS011;60683;51.730;8.762;2023-07-08T00:43:40;4.95;;;2.33;;
72639;SDS011;60683;51.730;8.762;2023-07-08T00:46:15;6.07;;;2.20;;
72639;SDS011;60683;51.730;8.762;2023-07-08T00:48:49;3.97;;;2.13;;
72639;SDS011;60683;51.730;8.762;2023-07-08T00:51:18;4.47;;;2.42;;
72639;SDS011;60683;51.730;8.762;2023-07-08T00:53:46;5.72;;;2.42;;
72639;SDS011;60683;51.730;8.762;2023-07-08T00:56:15;4.20;;;1.80;;
72639;SDS011;60683;51.730;8.762;2023-07-08T00:58:44;4.72;;;2.25;;
72639;SDS011;60683;51.730;8.762;2023-07-08T01:01:14;4.63;;;2.50;;
72639;SDS011;60683;51.730;8.762;2023-07-08T01:03:42;4.22;;;2.10;;
72639;SDS011;60683;51.730;8.762;2023-07-08T01:06:15;4.05;;;2.30;;
72639;SDS011;60683;51.730;8.762;2023-07-08T01:08:42;5.43;;;2.50;;
72639;SDS011;60683;51.730;8.762;2023-07-08T01:11:09;3.60;;;1.90;;
72639;SDS011;60683;51.730;8.762;2023-07-08T01:13:38;3.97;;;2.35;;
72639;SDS011;60683;51.730;8.762;2023-07-08T01:16:06;4.53;;;2.35;;
72639;SDS011;60683;51.730;8.762;2023-07-08T01:18:35;3.65;;;1.90;;
72639;SDS011;60683;51.730;8.762;2023-07-08T01:21:03;4.35;;;1.70;;
72639;SDS011;60683;51.730;8.762;2023-07-08T01:23:34;4.28;;;2.42;;
72639;SDS011;60683;51.730;8.762;2023-07-08T01:26:01;5.97;;;2.95;;
72639;SDS011;60683;51.730;8.762;2023-07-08T01:28:28;5.35;;;2.53;;
72639;SDS011;60683;51.730;8.762;2023-07-08T01:30:56;5.63;;;2.78;;
72639;SDS011;60683;51.730;8.762;2023-07-08T01:33:23;6.25;;;2.70;;
72639;SDS011;60683;51.730;8.762;2023-07-08T01:35:50;5.00;;;2.45;;
72639;SDS011;60683;51.730;8.762;2023-07-08T01:38:21;4.75;;;2.20;;
72639;SDS011;60683;51.730;8.762;2023-07-08T01:40:51;5.85;;;2.15;;
72639;SDS011;60683;51.730;8.762;2023-07-08T01:45:46;5.03;;;2.50;;
72639;SDS011;60683;51.730;8.762;2023-07-08T01:48:14;4.20;;;2.15;;
72639;SDS011;60683;51.730;8.762;2023-07-08T01:50:45;4.95;;;2.15;;
72639;SDS011;60683;51.730;8.762;2023-07-08T01:53:20;4.30;;;2.17;;
72639;SDS011;60683;51.730;8.762;2023-07-08T01:55:48;4.30;;;2.20;;
72639;SDS011;60683;51.730;8.762;2023-07-08T01:58:17;4.85;;;2.22;;
72639;SDS011;60683;51.730;8.762;2023-07-08T02:00:44;5.00;;;2.50;;
72639;SDS011;60683;51.730;8.762;2023-07-08T02:03:14;4.55;;;2.38;;
72639;SDS011;60683;51.730;8.762;2023-07-08T02:05:41;5.60;;;2.10;;
72639;SDS011;60683;51.730;8.762;2023-07-08T02:08:08;4.60;;;1.98;;
72639;SDS011;60683;51.730;8.762;2023-07-08T02:10:37;5.07;;;2.10;;
72639;SDS011;60683;51.730;8.762;2023-07-08T02:13:06;4.18;;;2.03;;
72639;SDS011;60683;51.730;8.762;2023-07-08T02:15:32;4.90;;;2.13;;
72639;SDS011;60683;51.730;8.762;2023-07-08T02:18:00;4.57;;;2.25;;
72639;SDS011;60683;51.730;8.762;2023-07-08T02:20:27;4.75;;;2.38;;
72639;SDS011;60683;51.730;8.762;2023-07-08T02:22:54;4.72;;;2.53;;
72639;SDS011;60683;51.730;8.762;2023-07-08T02:25:20;3.72;;;2.13;;
72639;SDS011;60683;51.730;8.762;2023-07-08T02:27:47;4.80;;;1.98;;
72639;SDS011;60683;51.730;8.762;2023-07-08T02:30:15;6.60;;;2.40;;
72639;SDS011;60683;51.730;8.762;2023-07-08T02:32:43;4.32;;;2.13;;
72639;SDS011;60683;51.730;8.762;2023-07-08T02:35:22;3.42;;;1.83;;
72639;SDS011;60683;51.730;8.762;2023-07-08T02:37:50;3.70;;;1.85;;
72639;SDS011;60683;51.730;8.762;2023-07-08T02:40:16;3.97;;;1.80;;
72639;SDS011;60683;51.730;8.762;2023-07-08T02:42:43;6.38;;;1.70;;
72639;SDS011;60683;51.730;8.762;2023-07-08T02:45:10;4.47;;;2.10;;
72639;SDS011;60683;51.730;8.762;2023-07-08T02:47:39;4.90;;;2.10;;
72639;SDS011;60683;51.730;8.762;2023-07-08T02:50:06;4.40;;;2.15;;
72639;SDS011;60683;51.730;8.762;2023-07-08T02:52:34;4.03;;;2.00;;
72639;SDS011;60683;51.730;8.762;2023-07-08T02:55:01;4.78;;;2.15;;
72639;SDS011;60683;51.730;8.762;2023-07-08T02:57:29;4.70;;;2.00;;
72639;SDS011;60683;51.730;8.762;2023-07-08T02:59:55;6.63;;;2.47;;
72639;SDS011;60683;51.730;8.762;2023-07-08T03:02:22;4.38;;;2.08;;
72639;SDS011;60683;51.730;8.762;2023-07-08T03:04:51;4.25;;;1.90;;
72639;SDS011;60683;51.730;8.762;2023-07-08T03:07:20;3.63;;;2.15;;
72639;SDS011;60683;51.730;8.762;2023-07-08T03:09:47;4.18;;;2.22;;
72639;SDS011;60683;51.730;8.762;2023-07-08T03:12:14;5.50;;;2.05;;
72639;SDS011;60683;51.730;8.762;2023-07-08T03:14:41;4.65;;;2.35;;
72639;SDS011;60683;51.730;8.762;2023-07-08T03:17:08;5.85;;;2.42;;
72639;SDS011;60683;51.730;8.762;2023-07-08T03:19:35;4.28;;;2.38;;
72639;SDS011;60683;51.730;8.762;2023-07-08T03:22:04;4.50;;;1.95;;
72639;SDS011;60683;51.730;8.762;2023-07-08T03:24:33;6.18;;;2.55;;
72639;SDS011;60683;51.730;8.762;2023-07-08T03:27:01;4.20;;;1.90;;
72639;SDS011;60683;51.730;8.762;2023-07-08T03:29:30;6.35;;;2.20;;
72639;SDS011;60683;51.730;8.762;2023-07-08T03:31:57;3.88;;;2.08;;
72639;SDS011;60683;51.730;8.762;2023-07-08T03:34:24;4.35;;;1.98;;
72639;SDS011;60683;51.730;8.762;2023-07-08T03:36:51;4.80;;;2.63;;
72639;SDS011;60683;51.730;8.762;2023-07-08T03:39:21;4.80;;;2.00;;
72639;SDS011;60683;51.730;8.762;2023-07-08T03:41:51;4.35;;;2.40;;
72639;SDS011;60683;51.730;8.762;2023-07-08T03:44:18;3.72;;;1.98;;
72639;SDS011;60683;51.730;8.762;2023-07-08T03:46:46;6.13;;;2.10;;
72639;SDS011;60683;51.730;8.762;2023-07-08T03:49:14;4.95;;;2.35;;
72639;SDS011;60683;51.730;8.762;2023-07-08T03:51:42;5.70;;;2.28;;
72639;SDS011;60683;51.730;8.762;2023-07-08T03:54:10;4.63;;;2.50;;
72639;SDS011;60683;51.730;8.762;2023-07-08T03:56:40;4.50;;;1.75;;
72639;SDS011;60683;51.730;8.762;2023-07-08T03:59:07;6.53;;;2.25;;
72639;SDS011;60683;51.730;8.762;2023-07-08T04:01:34;5.47;;;2.33;;
72639;SDS011;60683;51.730;8.762;2023-07-08T04:04:02;6.75;;;2.45;;
72639;SDS011;60683;51.730;8.762;2023-07-08T04:06:30;3.45;;;2.15;;
72639;SDS011;60683;51.730;8.762;2023-07-08T04:08:59;4.55;;;2.03;;
72639;SDS011;60683;51.730;8.762;2023-07-08T04:11:27;4.18;;;1.90;;
72639;SDS011;60683;51.730;8.762;2023-07-08T04:13:55;4.97;;;2.55;;
72639;SDS011;60683;51.730;8.762;2023-07-08T04:16:23;6.63;;;2.00;;
72639;SDS011;60683;51.730;8.762;2023-07-08T04:18:53;5.72;;;2.58;;
72639;SDS011;60683;51.730;8.762;2023-07-08T04:21:21;4.85;;;2.00;;
72639;SDS011;60683;51.730;8.762;2023-07-08T04:23:48;4.45;;;2.03;;
72639;SDS011;60683;51.730;8.762;2023-07-08T04:26:15;4.72;;;1.70;;
72639;SDS011;60683;51.730;8.762;2023-07-08T04:28:44;3.47;;;2.10;;
72639;SDS011;60683;51.730;8.762;2023-07-08T04:31:12;3.53;;;2.03;;
72639;SDS011;60683;51.730;8.762;2023-07-08T04:33:39;5.30;;;2.33;;
72639;SDS011;60683;51.730;8.762;2023-07-08T04:36:09;5.90;;;1.60;;
72639;SDS011;60683;51.730;8.762;2023-07-08T04:38:38;4.22;;;1.90;;
72639;SDS011;60683;51.730;8.762;2023-07-08T04:41:06;6.80;;;2.25;;
72639;SDS011;60683;51.730;8.762;2023-07-08T04:43:33;4.15;;;2.00;;
72639;SDS011;60683;51.730;8.762;2023-07-08T04:46:01;3.90;;;1.85;;
72639;SDS011;60683;51.730;8.762;2023-07-08T04:48:29;3.75;;;1.50;;
72639;SDS011;60683;51.730;8.762;2023-07-08T04:50:58;4.05;;;2.20;;
72639;SDS011;60683;51.730;8.762;2023-07-08T04:53:25;4.85;;;2.25;;
72639;SDS011;60683;51.730;8.762;2023-07-08T04:55:52;4.63;;;2.17;;
72639;SDS011;60683;51.730;8.762;2023-07-08T04:58:22;3.58;;;1.73;;
72639;SDS011;60683;51.730;8.762;2023-07-08T05:00:49;3.85;;;2.00;;
72639;SDS011;60683;51.730;8.762;2023-07-08T05:03:16;5.10;;;2.22;;
72639;SDS011;60683;51.730;8.762;2023-07-08T05:05:44;3.15;;;1.50;;
72639;SDS011;60683;51.730;8.762;2023-07-08T05:08:11;4.93;;;2.25;;
72639;SDS011;60683;51.730;8.762;2023-07-08T05:10:38;5.40;;;2.08;;
72639;SDS011;60683;51.730;8.762;2023-07-08T05:13:05;4.63;;;1.95;;
72639;SDS011;60683;51.730;8.762;2023-07-08T05:15:32;3.95;;;2.20;;
72639;SDS011;60683;51.730;8.762;2023-07-08T05:18:00;3.47;;;1.88;;
72639;SDS011;60683;51.730;8.762;2023-07-08T05:20:28;4.00;;;1.83;;
72639;SDS011;60683;51.730;8.762;2023-07-08T05:22:57;4.72;;;2.35;;
72639;SDS011;60683;51.730;8.762;2023-07-08T05:25:24;4.15;;;1.75;;
72639;SDS011;60683;51.730;8.762;2023-07-08T05:27:52;7.32;;;2.55;;
72639;SDS011;60683;51.730;8.762;2023-07-08T05:30:20;3.95;;;1.80;;
72639;SDS011;60683;51.730;8.762;2023-07-08T05:32:46;4.22;;;2.25;;
72639;SDS011;60683;51.730;8.762;2023-07-08T05:35:13;6.20;;;2.00;;
72639;SDS011;60683;51.730;8.762;2023-07-08T05:37:43;4.63;;;2.42;;
72639;SDS011;60683;51.730;8.762;2023-07-08T05:40:13;5.38;;;2.53;;
72639;SDS011;60683;51.730;8.762;2023-07-08T05:42:42;7.22;;;2.40;;
72639;SDS011;60683;51.730;8.762;2023-07-08T05:45:09;4.70;;;2.13;;
72639;SDS011;60683;51.730;8.762;2023-07-08T05:47:36;7.63;;;2.35;;
72639;SDS011;60683;51.730;8.762;2023-07-08T05:50:04;6.00;;;2.38;;
72639;SDS011;60683;51.730;8.762;2023-07-08T05:52:31;7.38;;;2.30;;
72639;SDS011;60683;51.730;8.762;2023-07-08T05:54:58;4.65;;;1.80;;
72639;SDS011;60683;51.730;8.762;2023-07-08T05:57:26;4.97;;;2.40;;
72639;SDS011;60683;51.730;8.762;2023-07-08T05:59:53;4.85;;;2.10;;
72639;SDS011;60683;51.730;8.762;2023-07-08T06:02:20;4.82;;;2.35;;
72639;SDS011;60683;51.730;8.762;2023-07-08T06:04:48;4.95;;;2.20;;
72639;SDS011;60683;51.730;8.762;2023-07-08T06:07:15;3.97;;;2.17;;
72639;SDS011;60683;51.730;8.762;2023-07-08T06:09:42;5.40;;;2.67;;
72639;SDS011;60683;51.730;8.762;2023-07-08T06:12:09;4.20;;;2.10;;
72639;SDS011;60683;51.730;8.762;2023-07-08T06:14:38;5.45;;;2.42;;
72639;SDS011;60683;51.730;8.762;2023-07-08T06:17:05;5.13;;;2.33;;
72639;SDS011;60683;51.730;8.762;2023-07-08T06:19:33;6.60;;;1.73;;
72639;SDS011;60683;51.730;8.762;2023-07-08T06:22:00;4.18;;;1.98;;
72639;SDS011;60683;51.730;8.762;2023-07-08T06:24:27;4.35;;;2.00;;
72639;SDS011;60683;51.730;8.762;2023-07-08T06:26:53;4.05;;;1.88;;
72639;SDS011;60683;51.730;8.762;2023-07-08T06:29:20;4.57;;;2.60;;
72639;SDS011;60683;51.730;8.762;2023-07-08T06:31:49;5.85;;;2.30;;
72639;SDS011;60683;51.730;8.762;2023-07-08T06:34:17;3.80;;;2.13;;
72639;SDS011;60683;51.730;8.762;2023-07-08T06:37:42;4.18;;;1.95;;
72639;SDS011;60683;51.730;8.762;2023-07-08T06:40:10;3.88;;;2.00;;
72639;SDS011;60683;51.730;8.762;2023-07-08T06:42:36;4.30;;;1.90;;
72639;SDS011;60683;51.730;8.762;2023-07-08T06:45:04;7.43;;;2.00;;
72639;SDS011;60683;51.730;8.762;2023-07-08T06:48:38;5.93;;;2.10;;
72639;SDS011;60683;51.730;8.762;2023-07-08T06:51:06;11.82;;;2.90;;
72639;SDS011;60683;51.730;8.762;2023-07-08T06:53:33;4.88;;;2.10;;
72639;SDS011;60683;51.730;8.762;2023-07-08T06:56:00;2.58;;;1.40;;
72639;SDS011;60683;51.730;8.762;2023-07-08T06:58:27;6.65;;;1.65;;
72639;SDS011;60683;51.730;8.762;2023-07-08T07:00:54;3.88;;;2.00;;
72639;SDS011;60683;51.730;8.762;2023-07-08T07:03:20;5.05;;;2.40;;
72639;SDS011;60683;51.730;8.762;2023-07-08T07:05:49;4.28;;;2.22;;
72639;SDS011;60683;51.730;8.762;2023-07-08T07:08:15;5.22;;;2.22;;
72639;SDS011;60683;51.730;8.762;2023-07-08T07:10:42;4.28;;;1.90;;
72639;SDS011;60683;51.730;8.762;2023-07-08T07:13:09;5.53;;;2.17;;
72639;SDS011;60683;51.730;8.762;2023-07-08T07:15:36;4.65;;;2.20;;
72639;SDS011;60683;51.730;8.762;2023-07-08T07:18:03;5.18;;;2.08;;
72639;SDS011;60683;51.730;8.762;2023-07-08T07:23:05;4.65;;;2.25;;
72639;SDS011;60683;51.730;8.762;2023-07-08T07:25:32;3.58;;;1.75;;
72639;SDS011;60683;51.730;8.762;2023-07-08T07:27:58;5.28;;;2.17;;
72639;SDS011;60683;51.730;8.762;2023-07-08T07:30:26;4.65;;;1.98;;
72639;SDS011;60683;51.730;8.762;2023-07-08T07:32:53;4.55;;;2.30;;
72639;SDS011;60683;51.730;8.762;2023-07-08T07:35:20;5.20;;;2.50;;
72639;SDS011;60683;51.730;8.762;2023-07-08T07:37:46;4.43;;;2.22;;
72639;SDS011;60683;51.730;8.762;2023-07-08T07:40:14;4.70;;;2.22;;
72639;SDS011;60683;51.730;8.762;2023-07-08T07:42:41;4.43;;;2.08;;
72639;SDS011;60683;51.730;8.762;2023-07-08T07:45:08;3.95;;;1.92;;
72639;SDS011;60683;51.730;8.762;2023-07-08T07:47:35;4.55;;;2.35;;
72639;SDS011;60683;51.730;8.762;2023-07-08T07:50:03;6.13;;;2.33;;
72639;SDS011;60683;51.730;8.762;2023-07-08T07:52:30;4.80;;;2.38;;
72639;SDS011;60683;51.730;8.762;2023-07-08T07:54:57;4.88;;;2.20;;
72639;SDS011;60683;51.730;8.762;2023-07-08T07:57:25;4.47;;;2.08;;
72639;SDS011;60683;51.730;8.762;2023-07-08T07:59:52;6.20;;;2.10;;
72639;SDS011;60683;51.730;8.762;2023-07-08T08:02:19;4.40;;;2.33;;
72639;SDS011;60683;51.730;8.762;2023-07-08T08:04:46;5.32;;;2.40;;
72639;SDS011;60683;51.730;8.762;2023-07-08T08:07:12;4.68;;;2.40;;
72639;SDS011;60683;51.730;8.762;2023-07-08T08:09:39;4.63;;;2.50;;
72639;SDS011;60683;51.730;8.762;2023-07-08T08:12:07;3.47;;;1.77;;
72639;SDS011;60683;51.730;8.762;2023-07-08T08:14:35;4.50;;;2.28;;
72639;SDS011;60683;51.730;8.762;2023-07-08T08:17:02;7.15;;;2.40;;
72639;SDS011;60683;51.730;8.762;2023-07-08T08:19:30;4.15;;;1.70;;
72639;SDS011;60683;51.730;8.762;2023-07-08T08:21:56;5.40;;;2.15;;
72639;SDS011;60683;51.730;8.762;2023-07-08T08:24:23;4.22;;;2.00;;
72639;SDS011;60683;51.730;8.762;2023-07-08T08:26:49;5.22;;;2.65;;
72639;SDS011;60683;51.730;8.762;2023-07-08T08:29:16;5.25;;;2.58;;
72639;SDS011;60683;51.730;8.762;2023-07-08T08:31:44;4.68;;;1.92;;
72639;SDS011;60683;51.730;8.762;2023-07-08T08:34:11;4.38;;;2.20;;
72639;SDS011;60683;51.730;8.762;2023-07-08T08:36:37;3.60;;;1.95;;
72639;SDS011;60683;51.730;8.762;2023-07-08T08:39:04;5.30;;;2.65;;
72639;SDS011;60683;51.730;8.762;2023-07-08T08:41:31;5.30;;;2.40;;
72639;SDS011;60683;51.730;8.762;2023-07-08T08:46:25;4.25;;;2.30;;
72639;SDS011;60683;51.730;8.762;2023-07-08T08:49:02;4.32;;;2.05;;
72639;SDS011;60683;51.730;8.762;2023-07-08T08:51:33;4.90;;;1.92;;
72639;SDS011;60683;51.730;8.762;2023-07-08T08:54:00;3.85;;;1.90;;
72639;SDS011;60683;51.730;8.762;2023-07-08T08:56:28;6.03;;;2.63;;
72639;SDS011;60683;51.730;8.762;2023-07-08T08:58:58;5.68;;;2.67;;
72639;SDS011;60683;51.730;8.762;2023-07-08T09:01:29;5.32;;;2.55;;
72639;SDS011;60683;51.730;8.762;2023-07-08T09:03:57;3.92;;;2.13;;
72639;SDS011;60683;51.730;8.762;2023-07-08T09:06:28;5.47;;;2.50;;
72639;SDS011;60683;51.730;8.762;2023-07-08T09:08:57;6.18;;;2.60;;
72639;SDS011;60683;51.730;8.762;2023-07-08T09:11:36;4.22;;;2.53;;
72639;SDS011;60683;51.730;8.762;2023-07-08T09:14:09;5.25;;;2.55;;
72639;SDS011;60683;51.730;8.762;2023-07-08T09:16:43;5.13;;;2.45;;
72639;SDS011;60683;51.730;8.762;2023-07-08T09:19:13;8.20;;;2.78;;
72639;SDS011;60683;51.730;8.762;2023-07-08T09:21:44;5.05;;;2.33;;
72639;SDS011;60683;51.730;8.762;2023-07-08T09:24:16;5.80;;;2.45;;
72639;SDS011;60683;51.730;8.762;2023-07-08T09:26:45;4.05;;;2.08;;
72639;SDS011;60683;51.730;8.762;2023-07-08T09:29:13;4.82;;;2.42;;
72639;SDS011;60683;51.730;8.762;2023-07-08T09:31:39;5.47;;;2.60;;
72639;SDS011;60683;51.730;8.762;2023-07-08T09:34:10;5.25;;;2.80;;
72639;SDS011;60683;51.730;8.762;2023-07-08T09:36:39;4.10;;;2.28;;
72639;SDS011;60683;51.730;8.762;2023-07-08T09:39:09;5.90;;;2.55;;
72639;SDS011;60683;51.730;8.762;2023-07-08T09:41:37;4.25;;;2.35;;
72639;SDS011;60683;51.730;8.762;2023-07-08T09:44:06;5.18;;;2.75;;
72639;SDS011;60683;51.730;8.762;2023-07-08T09:46:39;5.57;;;2.88;;
72639;SDS011;60683;51.730;8.762;2023-07-08T09:51:55;5.97;;;3.10;;
72639;SDS011;60683;51.730;8.762;2023-07-08T09:54:23;5.88;;;3.10;;
72639;SDS011;60683;51.730;8.762;2023-07-08T09:56:54;5.93;;;3.20;;
72639;SDS011;60683;51.730;8.762;2023-07-08T09:59:27;5.43;;;2.80;;
72639;SDS011;60683;51.730;8.762;2023-07-08T10:01:58;6.25;;;2.92;;
72639;SDS011;60683;51.730;8.762;2023-07-08T10:04:28;7.05;;;3.83;;
72639;SDS011;60683;51.730;8.762;2023-07-08T10:06:55;7.05;;;3.78;;
72639;SDS011;60683;51.730;8.762;2023-07-08T10:09:23;10.07;;;5.20;;
72639;SDS011;60683;51.730;8.762;2023-07-08T10:11:52;5.82;;;3.28;;
72639;SDS011;60683;51.730;8.762;2023-07-08T10:14:24;7.75;;;3.50;;
72639;SDS011;60683;51.730;8.762;2023-07-08T10:16:53;7.80;;;4.05;;
72639;SDS011;60683;51.730;8.762;2023-07-08T10:19:21;6.47;;;3.97;;
72639;SDS011;60683;51.730;8.762;2023-07-08T10:21:54;5.22;;;2.83;;
72639;SDS011;60683;51.730;8.762;2023-07-08T10:24:30;5.35;;;2.95;;
72639;SDS011;60683;51.730;8.762;2023-07-08T10:27:07;6.85;;;2.78;;
72639;SDS011;60683;51.730;8.762;2023-07-08T10:29:44;5.95;;;3.05;;
72639;SDS011;60683;51.730;8.762;2023-07-08T10:32:24;6.10;;;3.25;;
72639;SDS011;60683;51.730;8.762;2023-07-08T10:34:57;6.65;;;2.83;;
72639;SDS011;60683;51.730;8.762;2023-07-08T10:37:30;5.75;;;2.97;;
72639;SDS011;60683;51.730;8.762;2023-07-08T10:40:07;5.22;;;2.90;;
72639;SDS011;60683;51.730;8.762;2023-07-08T10:42:47;6.40;;;3.17;;
72639;SDS011;60683;51.730;8.762;2023-07-08T10:45:23;6.60;;;2.95;;
72639;SDS011;60683;51.730;8.762;2023-07-08T10:48:01;7.22;;;2.72;;
72639;SDS011;60683;51.730;8.762;2023-07-08T10:50:42;4.90;;;2.90;;
72639;SDS011;60683;51.730;8.762;2023-07-08T10:53:26;6.43;;;3.13;;
72639;SDS011;60683;51.730;8.762;2023-07-08T10:56:04;4.63;;;2.70;;
72639;SDS011;60683;51.730;8.762;2023-07-08T11:01:44;6.00;;;3.20;;
72639;SDS011;60683;51.730;8.762;2023-07-08T11:04:25;5.30;;;3.38;;
72639;SDS011;60683;51.730;8.762;2023-07-08T11:06:59;5.68;;;3.20;;
72639;SDS011;60683;51.730;8.762;2023-07-08T11:09:31;6.18;;;3.22;;
72639;SDS011;60683;51.730;8.762;2023-07-08T11:12:05;4.97;;;3.00;;
72639;SDS011;60683;51.730;8.762;2023-07-08T11:14:41;5.65;;;3.55;;
72639;SDS011;60683;51.730;8.762;2023-07-08T11:17:11;6.30;;;3.08;;
72639;SDS011;60683;51.730;8.762;2023-07-08T11:19:45;7.20;;;3.47;;
72639;SDS011;60683;51.730;8.762;2023-07-08T11:22:15;6.45;;;2.80;;
72639;SDS011;60683;51.730;8.762;2023-07-08T11:24:45;4.78;;;2.25;;
72639;SDS011;60683;51.730;8.762;2023-07-08T11:27:15;4.93;;;2.47;;
72639;SDS011;60683;51.730;8.762;2023-07-08T11:29:45;6.20;;;3.30;;
72639;SDS011;60683;51.730;8.762;2023-07-08T11:32:15;5.22;;;2.58;;
72639;SDS011;60683;51.730;8.762;2023-07-08T11:37:12;5.57;;;3.13;;
72639;SDS011;60683;51.730;8.762;2023-07-08T11:39:41;6.57;;;3.70;;
72639;SDS011;60683;51.730;8.762;2023-07-08T11:42:14;6.22;;;3.58;;
72639;SDS011;60683;51.730;8.762;2023-07-08T11:44:43;5.93;;;3.15;;
72639;SDS011;60683;51.730;8.762;2023-07-08T11:47:17;6.65;;;4.00;;
72639;SDS011;60683;51.730;8.762;2023-07-08T11:49:46;7.47;;;3.83;;
72639;SDS011;60683;51.730;8.762;2023-07-08T11:52:15;7.28;;;3.25;;
72639;SDS011;60683;51.730;8.762;2023-07-08T11:54:45;6.50;;;3.55;;
72639;SDS011;60683;51.730;8.762;2023-07-08T11:57:17;7.20;;;3.53;;
72639;SDS011;60683;51.730;8.762;2023-07-08T11:59:45;7.35;;;3.45;;
72639;SDS011;60683;51.730;8.762;2023-07-08T12:02:13;6.20;;;3.25;;
72639;SDS011;60683;51.730;8.762;2023-07-08T12:04:55;5.93;;;2.88;;
72639;SDS011;60683;51.730;8.762;2023-07-08T12:07:29;5.72;;;3.47;;
72639;SDS011;60683;51.730;8.762;2023-07-08T12:09:58;6.97;;;3.40;;
72639;SDS011;60683;51.730;8.762;2023-07-08T12:12:30;6.13;;;3.40;;
72639;SDS011;60683;51.730;8.762;2023-07-08T12:15:00;6.05;;;3.42;;
72639;SDS011;60683;51.730;8.762;2023-07-08T12:17:31;6.22;;;3.65;;
72639;SDS011;60683;51.730;8.762;2023-07-08T12:19:58;5.68;;;3.22;;
72639;SDS011;60683;51.730;8.762;2023-07-08T12:22:30;5.65;;;3.40;;
72639;SDS011;60683;51.730;8.762;2023-07-08T12:24:56;6.80;;;3.53;;
72639;SDS011;60683;51.730;8.762;2023-07-08T12:27:30;8.57;;;3.30;;
72639;SDS011;60683;51.730;8.762;2023-07-08T12:29:57;5.80;;;3.58;;
72639;SDS011;60683;51.730;8.762;2023-07-08T12:32:24;5.38;;;3.20;;
72639;SDS011;60683;51.730;8.762;2023-07-08T12:34:54;5.43;;;3.55;;
72639;SDS011;60683;51.730;8.762;2023-07-08T12:37:21;5.95;;;3.35;;
72639;SDS011;60683;51.730;8.762;2023-07-08T12:39:53;5.82;;;3.22;;
72639;SDS011;60683;51.730;8.762;2023-07-08T12:42:21;6.97;;;3.30;;
72639;SDS011;60683;51.730;8.762;2023-07-08T12:44:50;6.00;;;3.60;;
72639;SDS011;60683;51.730;8.762;2023-07-08T12:47:18;6.28;;;3.40;;
72639;SDS011;60683;51.730;8.762;2023-07-08T12:49:46;6.03;;;3.08;;
72639;SDS011;60683;51.730;8.762;2023-07-08T12:52:20;5.38;;;2.85;;
72639;SDS011;60683;51.730;8.762;2023-07-08T12:54:47;6.38;;;3.53;;
72639;SDS011;60683;51.730;8.762;2023-07-08T12:57:14;5.57;;;3.35;;
72639;SDS011;60683;51.730;8.762;2023-07-08T12:59:42;6.03;;;3.58;;
72639;SDS011;60683;51.730;8.762;2023-07-08T13:04:42;5.72;;;3.13;;
72639;SDS011;60683;51.730;8.762;2023-07-08T13:07:11;5.97;;;3.65;;
72639;SDS011;60683;51.730;8.762;2023-07-08T13:09:45;6.30;;;2.97;;
72639;SDS011;60683;51.730;8.762;2023-07-08T13:12:15;6.15;;;3.53;;
72639;SDS011;60683;51.730;8.762;2023-07-08T13:14:43;5.75;;;3.53;;
72639;SDS011;60683;51.730;8.762;2023-07-08T13:17:12;6.25;;;3.17;;
72639;SDS011;60683;51.730;8.762;2023-07-08T13:19:41;6.82;;;3.72;;
72639;SDS011;60683;51.730;8.762;2023-07-08T13:22:12;6.32;;;3.55;;
72639;SDS011;60683;51.730;8.762;2023-07-08T13:24:42;6.65;;;3.83;;
72639;SDS011;60683;51.730;8.762;2023-07-08T13:27:16;6.57;;;4.05;;
72639;SDS011;60683;51.730;8.762;2023-07-08T13:29:46;5.60;;;3.63;;
72639;SDS011;60683;51.730;8.762;2023-07-08T13:32:14;7.28;;;3.45;;
72639;SDS011;60683;51.730;8.762;2023-07-08T13:34:42;6.22;;;3.42;;
72639;SDS011;60683;51.730;8.762;2023-07-08T13:37:15;6.60;;;3.30;;
72639;SDS011;60683;51.730;8.762;2023-07-08T13:39:43;5.88;;;3.00;;
72639;SDS011;60683;51.730;8.762;2023-07-08T13:42:11;9.65;;;3.53;;
72639;SDS011;60683;51.730;8.762;2023-07-08T13:44:41;5.32;;;3.20;;
72639;SDS011;60683;51.730;8.762;2023-07-08T13:47:18;6.30;;;3.63;;
72639;SDS011;60683;51.730;8.762;2023-07-08T13:49:48;6.70;;;4.13;;
72639;SDS011;60683;51.730;8.762;2023-07-08T13:52:20;6.78;;;3.33;;
72639;SDS011;60683;51.730;8.762;2023-07-08T13:54:49;6.28;;;3.97;;
72639;SDS011;60683;51.730;8.762;2023-07-08T13:57:19;5.93;;;3.50;;
72639;SDS011;60683;51.730;8.762;2023-07-08T13:59:46;6.60;;;3.65;;
72639;SDS011;60683;51.730;8.762;2023-07-08T14:02:14;7.28;;;3.58;;
72639;SDS011;60683;51.730;8.762;2023-07-08T14:04:42;7.75;;;4.18;;
72639;SDS011;60683;51.730;8.762;2023-07-08T14:07:12;6.32;;;3.72;;
72639;SDS011;60683;51.730;8.762;2023-07-08T14:09:40;6.65;;;3.80;;
72639;SDS011;60683;51.730;8.762;2023-07-08T14:12:08;6.47;;;3.47;;
72639;SDS011;60683;51.730;8.762;2023-07-08T14:14:34;5.10;;;3.22;;
72639;SDS011;60683;51.730;8.762;2023-07-08T14:17:02;5.90;;;3.90;;
72639;SDS011;60683;51.730;8.762;2023-07-08T14:19:29;5.95;;;3.72;;
72639;SDS011;60683;51.730;8.762;2023-07-08T14:21:58;8.73;;;4.00;;
72639;SDS011;60683;51.730;8.762;2023-07-08T14:24:27;5.93;;;3.70;;
72639;SDS011;60683;51.730;8.762;2023-07-08T14:26:55;6.00;;;3.30;;
72639;SDS011;60683;51.730;8.762;2023-07-08T14:29:22;5.80;;;3.63;;
72639;SDS011;60683;51.730;8.762;2023-07-08T14:31:49;6.85;;;3.63;;
72639;SDS011;60683;51.730;8.762;2023-07-08T14:34:17;6.07;;;3.45;;
72639;SDS011;60683;51.730;8.762;2023-07-08T14:36:49;8.02;;;4.03;;
72639;SDS011;60683;51.730;8.762;2023-07-08T14:39:16;6.47;;;3.80;;
72639;SDS011;60683;51.730;8.762;2023-07-08T14:41:46;7.80;;;4.68;;
72639;SDS011;60683;51.730;8.762;2023-07-08T14:44:18;6.72;;;3.85;;
72639;SDS011;60683;51.730;8.762;2023-07-08T14:46:47;7.55;;;3.97;;
72639;SDS011;60683;51.730;8.762;2023-07-08T14:49:16;7.07;;;4.15;;
72639;SDS011;60683;51.730;8.762;2023-07-08T14:51:43;7.78;;;4.20;;
72639;SDS011;60683;51.730;8.762;2023-07-08T14:54:10;7.05;;;3.58;;
72639;SDS011;60683;51.730;8.762;2023-07-08T14:56:38;7.97;;;4.10;;
72639;SDS011;60683;51.730;8.762;2023-07-08T14:59:07;8.93;;;3.95;;
72639;SDS011;60683;51.730;8.762;2023-07-08T15:01:39;6.78;;;4.20;;
72639;SDS011;60683;51.730;8.762;2023-07-08T15:04:08;6.50;;;3.88;;
72639;SDS011;60683;51.730;8.762;2023-07-08T15:06:35;6.75;;;4.40;;
72639;SDS011;60683;51.730;8.762;2023-07-08T15:09:03;8.32;;;4.20;;
72639;SDS011;60683;51.730;8.762;2023-07-08T15:11:31;6.25;;;3.67;;
72639;SDS011;60683;51.730;8.762;2023-07-08T15:13:58;7.72;;;4.18;;
72639;SDS011;60683;51.730;8.762;2023-07-08T15:16:27;5.85;;;3.70;;
72639;SDS011;60683;51.730;8.762;2023-07-08T15:18:54;7.97;;;3.95;;